sensor_id;sensor_type;location;lat;lon;timestamp;temperature;humidity
37528;DHT22;23372;52.050;4.810;2022-09-27T00:01:33;10.80;99.90
37528;DHT22;23372;52.050;4.810;2022-09-27T00:03:58;10.80;99.90
37528;DHT22;23372;52.050;4.810;2022-09-27T00:06:27;10.80;99.90
37528;DHT22;23372;52.050;4.810;2022-09-27T00:08:54;10.90;99.90
37528;DHT22;23372;52.050;4.810;2022-09-27T00:11:27;10.80;99.90
37528;DHT22;23372;52.050;4.810;2022-09-27T00:13:54;10.90;99.90
37528;DHT22;23372;52.050;4.810;2022-09-27T00:16:21;10.80;99.90
37528;DHT22;23372;52.050;4.810;2022-09-27T00:18:47;10.80;99.90
37528;DHT22;23372;52.050;4.810;2022-09-27T00:21:13;10.70;99.90
37528;DHT22;23372;52.050;4.810;2022-09-27T00:23:39;10.70;99.90
37528;DHT22;23372;52.050;4.810;2022-09-27T00:26:06;10.70;99.90
37528;DHT22;23372;52.050;4.810;2022-09-27T00:28:32;10.70;99.90
37528;DHT22;23372;52.050;4.810;2022-09-27T00:30:58;10.70;99.90
37528;DHT22;23372;52.050;4.810;2022-09-27T00:33:24;10.70;99.90
37528;DHT22;23372;52.050;4.810;2022-09-27T00:35:50;10.60;99.90
37528;DHT22;23372;52.050;4.810;2022-09-27T00:38:16;10.50;99.90
37528;DHT22;23372;52.050;4.810;2022-09-27T00:40:42;10.50;99.90
37528;DHT22;23372;52.050;4.810;2022-09-27T00:43:21;10.50;99.90
37528;DHT22;23372;52.050;4.810;2022-09-27T00:45:56;10.60;99.90
37528;DHT22;23372;52.050;4.810;2022-09-27T00:48:25;10.60;99.90
37528;DHT22;23372;52.050;4.810;2022-09-27T00:50:54;10.70;99.90
37528;DHT22;23372;52.050;4.810;2022-09-27T00:53:23;10.70;99.90
37528;DHT22;23372;52.050;4.810;2022-09-27T00:55:53;10.60;99.90
37528;DHT22;23372;52.050;4.810;2022-09-27T00:58:23;10.70;99.90
37528;DHT22;23372;52.050;4.810;2022-09-27T01:00:54;10.60;99.90
37528;DHT22;23372;52.050;4.810;2022-09-27T01:03:30;10.60;99.90
37528;DHT22;23372;52.050;4.810;2022-09-27T01:05:58;10.60;99.90
37528;DHT22;23372;52.050;4.810;2022-09-27T01:08:24;10.50;99.90
37528;DHT22;23372;52.050;4.810;2022-09-27T01:10:58;10.50;99.90
37528;DHT22;23372;52.050;4.810;2022-09-27T01:13:43;10.30;99.90
37528;DHT22;23372;52.050;4.810;2022-09-27T01:16:23;10.20;99.90
37528;DHT22;23372;52.050;4.810;2022-09-27T01:21:57;10.10;99.90
37528;DHT22;23372;52.050;4.810;2022-09-27T01:27:44;10.00;99.90
37528;DHT22;23372;52.050;4.810;2022-09-27T01:30:17;9.90;99.90
37528;DHT22;23372;52.050;4.810;2022-09-27T01:33:05;9.90;99.90
37528;DHT22;23372;52.050;4.810;2022-09-27T01:38:39;9.80;99.90
37528;DHT22;23372;52.050;4.810;2022-09-27T01:41:16;9.70;99.90
37528;DHT22;23372;52.050;4.810;2022-09-27T01:43:58;9.60;99.90
37528;DHT22;23372;52.050;4.810;2022-09-27T01:46:48;9.60;99.90
37528;DHT22;23372;52.050;4.810;2022-09-27T01:49:18;9.50;99.90
37528;DHT22;23372;52.050;4.810;2022-09-27T01:51:58;9.50;99.90
37528;DHT22;23372;52.050;4.810;2022-09-27T01:54:40;9.60;99.90
37528;DHT22;23372;52.050;4.810;2022-09-27T01:57:08;9.70;99.90
37528;DHT22;23372;52.050;4.810;2022-09-27T01:59:54;9.80;99.90
37528;DHT22;23372;52.050;4.810;2022-09-27T02:02:23;9.80;99.90
37528;DHT22;23372;52.050;4.810;2022-09-27T02:04:52;9.90;99.90
37528;DHT22;23372;52.050;4.810;2022-09-27T02:07:26;10.00;99.90
37528;DHT22;23372;52.050;4.810;2022-09-27T02:10:04;10.00;99.90
37528;DHT22;23372;52.050;4.810;2022-09-27T02:12:39;10.00;99.90
37528;DHT22;23372;52.050;4.810;2022-09-27T02:15:10;9.90;99.90
37528;DHT22;23372;52.050;4.810;2022-09-27T02:20:33;9.80;99.90
37528;DHT22;23372;52.050;4.810;2022-09-27T02:23:22;9.80;99.90
37528;DHT22;23372;52.050;4.810;2022-09-27T02:25:57;9.80;99.90
37528;DHT22;23372;52.050;4.810;2022-09-27T02:28:50;9.80;99.90
37528;DHT22;23372;52.050;4.810;2022-09-27T02:31:17;9.80;99.90
37528;DHT22;23372;52.050;4.810;2022-09-27T02:33:51;9.80;99.90
37528;DHT22;23372;52.050;4.810;2022-09-27T02:36:19;9.90;99.90
37528;DHT22;23372;52.050;4.810;2022-09-27T02:38:45;9.90;99.90
37528;DHT22;23372;52.050;4.810;2022-09-27T02:41:18;9.90;99.90
37528;DHT22;23372;52.050;4.810;2022-09-27T02:43:50;9.80;99.90
37528;DHT22;23372;52.050;4.810;2022-09-27T02:49:09;9.90;99.90
37528;DHT22;23372;52.050;4.810;2022-09-27T02:54:59;9.80;99.90
37528;DHT22;23372;52.050;4.810;2022-09-27T03:00:19;9.80;99.90
37528;DHT22;23372;52.050;4.810;2022-09-27T03:03:00;9.80;99.90
37528;DHT22;23372;52.050;4.810;2022-09-27T03:05:29;9.90;99.90
37528;DHT22;23372;52.050;4.810;2022-09-27T03:07:56;9.80;99.90
37528;DHT22;23372;52.050;4.810;2022-09-27T03:10:25;9.80;99.90
37528;DHT22;23372;52.050;4.810;2022-09-27T03:12:51;9.80;99.90
37528;DHT22;23372;52.050;4.810;2022-09-27T03:15:18;9.70;99.90
37528;DHT22;23372;52.050;4.810;2022-09-27T03:17:44;9.60;99.90
37528;DHT22;23372;52.050;4.810;2022-09-27T03:20:10;9.50;99.90
37528;DHT22;23372;52.050;4.810;2022-09-27T03:22:35;9.50;99.90
37528;DHT22;23372;52.050;4.810;2022-09-27T03:25:03;9.40;99.90
37528;DHT22;23372;52.050;4.810;2022-09-27T03:27:29;9.20;99.90
37528;DHT22;23372;52.050;4.810;2022-09-27T03:29:54;9.20;99.90
37528;DHT22;23372;52.050;4.810;2022-09-27T03:32:20;9.20;99.90
37528;DHT22;23372;52.050;4.810;2022-09-27T03:34:45;9.20;99.90
37528;DHT22;23372;52.050;4.810;2022-09-27T03:37:11;9.10;99.90
37528;DHT22;23372;52.050;4.810;2022-09-27T03:39:36;9.20;99.90
37528;DHT22;23372;52.050;4.810;2022-09-27T03:42:02;9.20;99.90
37528;DHT22;23372;52.050;4.810;2022-09-27T03:44:27;9.30;99.90
37528;DHT22;23372;52.050;4.810;2022-09-27T03:46:53;9.30;99.90
37528;DHT22;23372;52.050;4.810;2022-09-27T03:49:18;9.40;99.90
37528;DHT22;23372;52.050;4.810;2022-09-27T03:51:44;9.40;99.90
37528;DHT22;23372;52.050;4.810;2022-09-27T03:54:09;9.50;99.90
37528;DHT22;23372;52.050;4.810;2022-09-27T03:56:35;9.50;99.90
37528;DHT22;23372;52.050;4.810;2022-09-27T03:59:01;9.60;99.90
37528;DHT22;23372;52.050;4.810;2022-09-27T04:01:26;9.70;99.90
37528;DHT22;23372;52.050;4.810;2022-09-27T04:03:53;9.80;99.90
37528;DHT22;23372;52.050;4.810;2022-09-27T04:06:18;9.80;99.90
37528;DHT22;23372;52.050;4.810;2022-09-27T04:08:45;9.90;99.90
37528;DHT22;23372;52.050;4.810;2022-09-27T04:11:12;9.80;99.90
37528;DHT22;23372;52.050;4.810;2022-09-27T04:13:39;10.00;99.90
37528;DHT22;23372;52.050;4.810;2022-09-27T04:16:05;10.00;99.90
37528;DHT22;23372;52.050;4.810;2022-09-27T04:18:31;10.00;99.90
37528;DHT22;23372;52.050;4.810;2022-09-27T04:20:56;10.10;99.90
37528;DHT22;23372;52.050;4.810;2022-09-27T04:23:22;10.10;99.90
37528;DHT22;23372;52.050;4.810;2022-09-27T04:25:48;10.10;99.90
37528;DHT22;23372;52.050;4.810;2022-09-27T04:28:13;10.00;99.90
37528;DHT22;23372;52.050;4.810;2022-09-27T04:30:39;10.00;99.90
37528;DHT22;23372;52.050;4.810;2022-09-27T04:33:05;10.00;99.90
37528;DHT22;23372;52.050;4.810;2022-09-27T04:35:31;10.00;99.90
37528;DHT22;23372;52.050;4.810;2022-09-27T04:38:15;10.00;99.90
37528;DHT22;23372;52.050;4.810;2022-09-27T04:40:40;10.00;99.90
37528;DHT22;23372;52.050;4.810;2022-09-27T04:43:06;10.00;99.90
37528;DHT22;23372;52.050;4.810;2022-09-27T04:45:32;10.00;99.90
37528;DHT22;23372;52.050;4.810;2022-09-27T04:47:58;10.00;99.90
37528;DHT22;23372;52.050;4.810;2022-09-27T04:50:23;9.90;99.90
37528;DHT22;23372;52.050;4.810;2022-09-27T04:52:53;9.90;99.90
37528;DHT22;23372;52.050;4.810;2022-09-27T04:55:19;9.90;99.90
37528;DHT22;23372;52.050;4.810;2022-09-27T04:57:45;9.90;99.90
37528;DHT22;23372;52.050;4.810;2022-09-27T05:00:11;9.80;99.90
37528;DHT22;23372;52.050;4.810;2022-09-27T05:02:37;9.80;99.90
37528;DHT22;23372;52.050;4.810;2022-09-27T05:05:03;9.80;99.90
37528;DHT22;23372;52.050;4.810;2022-09-27T05:07:32;9.90;99.90
37528;DHT22;23372;52.050;4.810;2022-09-27T05:09:58;9.80;99.90
37528;DHT22;23372;52.050;4.810;2022-09-27T05:12:23;9.80;99.90
37528;DHT22;23372;52.050;4.810;2022-09-27T05:14:51;9.70;99.90
37528;DHT22;23372;52.050;4.810;2022-09-27T05:17:17;9.80;99.90
37528;DHT22;23372;52.050;4.810;2022-09-27T05:19:43;9.80;99.90
37528;DHT22;23372;52.050;4.810;2022-09-27T05:22:08;9.90;99.90
37528;DHT22;23372;52.050;4.810;2022-09-27T05:24:34;9.80;99.90
37528;DHT22;23372;52.050;4.810;2022-09-27T05:27:01;9.90;99.90
37528;DHT22;23372;52.050;4.810;2022-09-27T05:29:27;10.00;99.90
37528;DHT22;23372;52.050;4.810;2022-09-27T05:31:52;10.00;99.90
37528;DHT22;23372;52.050;4.810;2022-09-27T05:34:18;10.00;99.90
37528;DHT22;23372;52.050;4.810;2022-09-27T05:36:48;10.00;99.90
37528;DHT22;23372;52.050;4.810;2022-09-27T05:39:14;10.00;99.90
37528;DHT22;23372;52.050;4.810;2022-09-27T05:41:43;10.10;99.90
37528;DHT22;23372;52.050;4.810;2022-09-27T05:44:09;10.00;99.90
37528;DHT22;23372;52.050;4.810;2022-09-27T05:46:34;10.10;99.90
37528;DHT22;23372;52.050;4.810;2022-09-27T05:48:59;10.10;99.90
37528;DHT22;23372;52.050;4.810;2022-09-27T05:51:25;10.00;99.90
37528;DHT22;23372;52.050;4.810;2022-09-27T05:53:51;10.10;99.90
37528;DHT22;23372;52.050;4.810;2022-09-27T05:56:16;10.10;99.90
37528;DHT22;23372;52.050;4.810;2022-09-27T05:58:42;10.20;99.90
37528;DHT22;23372;52.050;4.810;2022-09-27T06:01:08;10.20;99.90
37528;DHT22;23372;52.050;4.810;2022-09-27T06:03:34;10.20;99.90
37528;DHT22;23372;52.050;4.810;2022-09-27T06:06:02;10.20;99.90
37528;DHT22;23372;52.050;4.810;2022-09-27T06:08:32;10.20;99.90
37528;DHT22;23372;52.050;4.810;2022-09-27T06:11:00;10.30;99.90
37528;DHT22;23372;52.050;4.810;2022-09-27T06:13:28;10.20;99.90
37528;DHT22;23372;52.050;4.810;2022-09-27T06:15:54;10.20;99.90
37528;DHT22;23372;52.050;4.810;2022-09-27T06:18:19;10.20;99.90
37528;DHT22;23372;52.050;4.810;2022-09-27T06:20:45;10.30;99.90
37528;DHT22;23372;52.050;4.810;2022-09-27T06:23:16;10.40;99.90
37528;DHT22;23372;52.050;4.810;2022-09-27T06:25:43;10.30;99.90
37528;DHT22;23372;52.050;4.810;2022-09-27T06:28:09;10.40;99.90
37528;DHT22;23372;52.050;4.810;2022-09-27T06:30:40;10.50;99.90
37528;DHT22;23372;52.050;4.810;2022-09-27T06:33:06;10.50;99.90
37528;DHT22;23372;52.050;4.810;2022-09-27T06:35:34;10.50;99.90
37528;DHT22;23372;52.050;4.810;2022-09-27T06:38:09;10.50;99.90
37528;DHT22;23372;52.050;4.810;2022-09-27T06:40:35;10.60;99.90
37528;DHT22;23372;52.050;4.810;2022-09-27T06:43:05;10.60;99.90
37528;DHT22;23372;52.050;4.810;2022-09-27T06:45:32;10.70;99.90
37528;DHT22;23372;52.050;4.810;2022-09-27T06:48:00;10.70;99.90
37528;DHT22;23372;52.050;4.810;2022-09-27T06:50:36;10.70;99.90
37528;DHT22;23372;52.050;4.810;2022-09-27T06:53:07;10.70;99.90
37528;DHT22;23372;52.050;4.810;2022-09-27T06:55:35;10.70;99.90
37528;DHT22;23372;52.050;4.810;2022-09-27T06:58:01;10.70;99.90
37528;DHT22;23372;52.050;4.810;2022-09-27T07:00:50;10.70;99.90
37528;DHT22;23372;52.050;4.810;2022-09-27T07:03:17;10.60;99.90
37528;DHT22;23372;52.050;4.810;2022-09-27T07:05:56;10.60;99.90
37528;DHT22;23372;52.050;4.810;2022-09-27T07:08:23;10.60;99.90
37528;DHT22;23372;52.050;4.810;2022-09-27T07:10:50;10.70;99.90
37528;DHT22;23372;52.050;4.810;2022-09-27T07:13:17;10.60;99.90
37528;DHT22;23372;52.050;4.810;2022-09-27T07:15:43;10.70;99.90
37528;DHT22;23372;52.050;4.810;2022-09-27T07:18:08;10.70;99.90
37528;DHT22;23372;52.050;4.810;2022-09-27T07:20:34;10.60;99.90
37528;DHT22;23372;52.050;4.810;2022-09-27T07:23:02;10.60;99.90
37528;DHT22;23372;52.050;4.810;2022-09-27T07:25:27;10.60;99.90
37528;DHT22;23372;52.050;4.810;2022-09-27T07:27:53;10.60;99.90
37528;DHT22;23372;52.050;4.810;2022-09-27T07:30:19;10.50;99.90
37528;DHT22;23372;52.050;4.810;2022-09-27T07:32:46;10.50;99.90
37528;DHT22;23372;52.050;4.810;2022-09-27T07:35:12;10.20;99.90
37528;DHT22;23372;52.050;4.810;2022-09-27T07:37:41;10.20;99.90
37528;DHT22;23372;52.050;4.810;2022-09-27T07:40:08;10.20;99.90
37528;DHT22;23372;52.050;4.810;2022-09-27T07:42:35;10.10;99.90
37528;DHT22;23372;52.050;4.810;2022-09-27T07:45:07;10.20;99.90
37528;DHT22;23372;52.050;4.810;2022-09-27T07:47:33;10.10;99.90
37528;DHT22;23372;52.050;4.810;2022-09-27T07:49:58;10.10;99.90
37528;DHT22;23372;52.050;4.810;2022-09-27T07:52:24;10.00;99.90
37528;DHT22;23372;52.050;4.810;2022-09-27T07:54:49;10.00;99.90
37528;DHT22;23372;52.050;4.810;2022-09-27T07:57:15;9.90;99.90
37528;DHT22;23372;52.050;4.810;2022-09-27T07:59:41;9.80;99.90
37528;DHT22;23372;52.050;4.810;2022-09-27T08:02:13;9.80;99.90
37528;DHT22;23372;52.050;4.810;2022-09-27T08:04:40;9.80;99.90
37528;DHT22;23372;52.050;4.810;2022-09-27T08:07:08;9.80;99.90
37528;DHT22;23372;52.050;4.810;2022-09-27T08:09:34;9.90;99.90
37528;DHT22;23372;52.050;4.810;2022-09-27T08:12:00;9.80;99.90
37528;DHT22;23372;52.050;4.810;2022-09-27T08:14:25;9.90;99.90
37528;DHT22;23372;52.050;4.810;2022-09-27T08:16:51;9.90;99.90
37528;DHT22;23372;52.050;4.810;2022-09-27T08:19:16;10.00;99.90
37528;DHT22;23372;52.050;4.810;2022-09-27T08:21:42;10.00;99.90
37528;DHT22;23372;52.050;4.810;2022-09-27T08:24:08;10.00;99.90
37528;DHT22;23372;52.050;4.810;2022-09-27T08:26:33;10.00;99.90
37528;DHT22;23372;52.050;4.810;2022-09-27T08:28:59;10.00;99.90
37528;DHT22;23372;52.050;4.810;2022-09-27T08:31:24;10.00;99.90
37528;DHT22;23372;52.050;4.810;2022-09-27T08:33:50;10.00;99.90
37528;DHT22;23372;52.050;4.810;2022-09-27T08:36:16;10.00;99.90
37528;DHT22;23372;52.050;4.810;2022-09-27T08:38:42;10.00;99.90
37528;DHT22;23372;52.050;4.810;2022-09-27T08:47:11;10.10;99.90
37528;DHT22;23372;52.050;4.810;2022-09-27T08:49:54;10.10;99.90
37528;DHT22;23372;52.050;4.810;2022-09-27T08:52:26;10.10;99.90
37528;DHT22;23372;52.050;4.810;2022-09-27T08:54:54;10.10;99.90
37528;DHT22;23372;52.050;4.810;2022-09-27T08:57:23;10.20;99.90
37528;DHT22;23372;52.050;4.810;2022-09-27T09:00:05;10.20;99.90
37528;DHT22;23372;52.050;4.810;2022-09-27T09:02:31;10.20;99.90
37528;DHT22;23372;52.050;4.810;2022-09-27T09:05:15;10.10;99.90
37528;DHT22;23372;52.050;4.810;2022-09-27T09:08:01;10.20;99.90
37528;DHT22;23372;52.050;4.810;2022-09-27T09:10:33;10.30;99.90
37528;DHT22;23372;52.050;4.810;2022-09-27T09:13:29;10.40;99.90
37528;DHT22;23372;52.050;4.810;2022-09-27T09:24:33;10.60;99.90
37528;DHT22;23372;52.050;4.810;2022-09-27T09:35:25;10.80;99.90
37528;DHT22;23372;52.050;4.810;2022-09-27T09:37:55;10.90;99.90
37528;DHT22;23372;52.050;4.810;2022-09-27T09:45:43;10.70;99.90
37528;DHT22;23372;52.050;4.810;2022-09-27T09:50:46;10.90;99.90
37528;DHT22;23372;52.050;4.810;2022-09-27T09:53:14;11.00;99.90
37528;DHT22;23372;52.050;4.810;2022-09-27T09:55:47;10.90;99.90
37528;DHT22;23372;52.050;4.810;2022-09-27T09:58:23;10.90;99.90
37528;DHT22;23372;52.050;4.810;2022-09-27T10:00:54;11.00;99.90
37528;DHT22;23372;52.050;4.810;2022-09-27T10:03:21;10.90;99.90
37528;DHT22;23372;52.050;4.810;2022-09-27T10:05:47;11.00;99.90
37528;DHT22;23372;52.050;4.810;2022-09-27T10:08:18;10.90;99.90
37528;DHT22;23372;52.050;4.810;2022-09-27T10:10:45;10.80;99.90
37528;DHT22;23372;52.050;4.810;2022-09-27T10:13:21;10.80;99.90
37528;DHT22;23372;52.050;4.810;2022-09-27T10:16:11;10.70;99.90
37528;DHT22;23372;52.050;4.810;2022-09-27T10:18:38;10.70;99.90
37528;DHT22;23372;52.050;4.810;2022-09-27T10:21:18;10.60;99.90
37528;DHT22;23372;52.050;4.810;2022-09-27T10:24:06;10.50;99.90
37528;DHT22;23372;52.050;4.810;2022-09-27T10:26:33;10.50;99.90
37528;DHT22;23372;52.050;4.810;2022-09-27T10:29:20;10.50;99.90
37528;DHT22;23372;52.050;4.810;2022-09-27T10:31:47;10.50;99.90
37528;DHT22;23372;52.050;4.810;2022-09-27T10:34:27;10.50;99.90
37528;DHT22;23372;52.050;4.810;2022-09-27T10:37:20;10.50;99.90
37528;DHT22;23372;52.050;4.810;2022-09-27T10:39:48;10.40;99.90
37528;DHT22;23372;52.050;4.810;2022-09-27T10:42:35;10.30;99.90
37528;DHT22;23372;52.050;4.810;2022-09-27T10:47:46;10.10;99.90
37528;DHT22;23372;52.050;4.810;2022-09-27T10:50:19;10.00;99.90
37528;DHT22;23372;52.050;4.810;2022-09-27T10:53:00;10.00;99.90
37528;DHT22;23372;52.050;4.810;2022-09-27T10:55:28;9.90;99.90
37528;DHT22;23372;52.050;4.810;2022-09-27T10:57:56;9.90;99.90
37528;DHT22;23372;52.050;4.810;2022-09-27T11:00:24;9.90;99.90
37528;DHT22;23372;52.050;4.810;2022-09-27T11:02:54;9.90;99.90
37528;DHT22;23372;52.050;4.810;2022-09-27T11:08:00;9.90;99.90
37528;DHT22;23372;52.050;4.810;2022-09-27T11:10:32;10.00;99.90
37528;DHT22;23372;52.050;4.810;2022-09-27T11:21:46;10.20;99.90
37528;DHT22;23372;52.050;4.810;2022-09-27T11:27:27;10.10;99.90
37528;DHT22;23372;52.050;4.810;2022-09-27T11:30:07;10.00;99.90
37528;DHT22;23372;52.050;4.810;2022-09-27T11:54:48;10.20;99.90
37528;DHT22;23372;52.050;4.810;2022-09-27T11:57:38;10.10;99.90
37528;DHT22;23372;52.050;4.810;2022-09-27T12:00:13;10.20;99.90
37528;DHT22;23372;52.050;4.810;2022-09-27T12:06:10;10.30;99.90
37528;DHT22;23372;52.050;4.810;2022-09-27T12:16:21;10.60;99.90
37528;DHT22;23372;52.050;4.810;2022-09-27T12:18:49;10.70;99.90
37528;DHT22;23372;52.050;4.810;2022-09-27T12:21:16;10.80;99.90
37528;DHT22;23372;52.050;4.810;2022-09-27T12:23:44;10.80;99.90
37528;DHT22;23372;52.050;4.810;2022-09-27T12:26:19;10.90;99.90
37528;DHT22;23372;52.050;4.810;2022-09-27T12:29:11;11.00;99.90
37528;DHT22;23372;52.050;4.810;2022-09-27T12:31:53;11.10;99.90
37528;DHT22;23372;52.050;4.810;2022-09-27T12:37:11;11.50;99.90
37528;DHT22;23372;52.050;4.810;2022-09-27T12:42:44;11.40;99.90
37528;DHT22;23372;52.050;4.810;2022-09-27T12:45:14;11.50;99.90
37528;DHT22;23372;52.050;4.810;2022-09-27T12:50:54;11.80;99.90
37528;DHT22;23372;52.050;4.810;2022-09-27T12:58:51;11.90;99.90
37528;DHT22;23372;52.050;4.810;2022-09-27T13:01:34;12.00;99.90
37528;DHT22;23372;52.050;4.810;2022-09-27T13:12:21;12.20;99.90
37528;DHT22;23372;52.050;4.810;2022-09-27T13:15:18;12.30;99.90
37528;DHT22;23372;52.050;4.810;2022-09-27T13:17:48;12.30;99.90
37528;DHT22;23372;52.050;4.810;2022-09-27T13:22:52;12.30;99.90
37528;DHT22;23372;52.050;4.810;2022-09-27T13:25:50;12.30;99.90
37528;DHT22;23372;52.050;4.810;2022-09-27T13:31:00;12.20;99.90
37528;DHT22;23372;52.050;4.810;2022-09-27T13:33:40;12.10;99.90
37528;DHT22;23372;52.050;4.810;2022-09-27T13:39:04;12.00;99.90
37528;DHT22;23372;52.050;4.810;2022-09-27T13:47:14;12.00;99.90
37528;DHT22;23372;52.050;4.810;2022-09-27T13:49:49;12.10;99.90
37528;DHT22;23372;52.050;4.810;2022-09-27T13:52:32;12.00;99.90
37528;DHT22;23372;52.050;4.810;2022-09-27T13:55:03;12.00;99.90
37528;DHT22;23372;52.050;4.810;2022-09-27T14:00:01;11.90;99.90
37528;DHT22;23372;52.050;4.810;2022-09-27T14:02:37;11.90;99.90
37528;DHT22;23372;52.050;4.810;2022-09-27T14:05:03;11.90;99.90
37528;DHT22;23372;52.050;4.810;2022-09-27T14:07:38;12.00;99.90
37528;DHT22;23372;52.050;4.810;2022-09-27T14:10:07;12.00;99.90
37528;DHT22;23372;52.050;4.810;2022-09-27T14:12:38;12.00;99.90
37528;DHT22;23372;52.050;4.810;2022-09-27T14:15:08;12.10;99.90
37528;DHT22;23372;52.050;4.810;2022-09-27T14:17:40;12.10;99.90
37528;DHT22;23372;52.050;4.810;2022-09-27T14:22:54;12.00;99.90
37528;DHT22;23372;52.050;4.810;2022-09-27T14:25:19;12.10;99.90
37528;DHT22;23372;52.050;4.810;2022-09-27T14:27:45;12.10;99.90
37528;DHT22;23372;52.050;4.810;2022-09-27T14:30:15;12.20;99.90
37528;DHT22;23372;52.050;4.810;2022-09-27T14:32:52;12.20;99.90
37528;DHT22;23372;52.050;4.810;2022-09-27T14:35:24;12.40;99.90
37528;DHT22;23372;52.050;4.810;2022-09-27T14:38:11;12.40;99.90
37528;DHT22;23372;52.050;4.810;2022-09-27T14:40:59;12.50;99.90
37528;DHT22;23372;52.050;4.810;2022-09-27T14:43:25;12.50;99.90
37528;DHT22;23372;52.050;4.810;2022-09-27T14:45:59;12.40;99.90
37528;DHT22;23372;52.050;4.810;2022-09-27T14:48:36;12.40;99.90
37528;DHT22;23372;52.050;4.810;2022-09-27T14:51:03;12.30;99.90
37528;DHT22;23372;52.050;4.810;2022-09-27T14:53:49;12.30;99.90
37528;DHT22;23372;52.050;4.810;2022-09-27T14:56:26;12.30;99.90
37528;DHT22;23372;52.050;4.810;2022-09-27T14:59:01;12.30;99.90
37528;DHT22;23372;52.050;4.810;2022-09-27T15:01:28;12.20;99.90
37528;DHT22;23372;52.050;4.810;2022-09-27T15:04:05;12.20;99.90
37528;DHT22;23372;52.050;4.810;2022-09-27T15:06:31;12.10;99.90
37528;DHT22;23372;52.050;4.810;2022-09-27T15:08:58;12.10;99.90
37528;DHT22;23372;52.050;4.810;2022-09-27T15:11:24;12.10;99.90
37528;DHT22;23372;52.050;4.810;2022-09-27T15:13:51;12.00;99.90
37528;DHT22;23372;52.050;4.810;2022-09-27T15:16:21;12.00;99.90
37528;DHT22;23372;52.050;4.810;2022-09-27T15:18:49;12.00;99.90
37528;DHT22;23372;52.050;4.810;2022-09-27T15:21:33;11.90;99.90
37528;DHT22;23372;52.050;4.810;2022-09-27T15:24:00;11.80;99.90
37528;DHT22;23372;52.050;4.810;2022-09-27T15:26:44;11.60;99.90
37528;DHT22;23372;52.050;4.810;2022-09-27T15:29:21;11.60;99.90
37528;DHT22;23372;52.050;4.810;2022-09-27T15:32:05;11.50;99.90
37528;DHT22;23372;52.050;4.810;2022-09-27T15:34:32;11.40;99.90
37528;DHT22;23372;52.050;4.810;2022-09-27T15:37:00;11.40;99.90
37528;DHT22;23372;52.050;4.810;2022-09-27T15:39:37;11.30;99.90
37528;DHT22;23372;52.050;4.810;2022-09-27T15:42:13;11.20;99.90
37528;DHT22;23372;52.050;4.810;2022-09-27T15:44:54;11.10;99.90
37528;DHT22;23372;52.050;4.810;2022-09-27T15:52:46;11.00;99.90
37528;DHT22;23372;52.050;4.810;2022-09-27T15:55:13;11.10;99.90
37528;DHT22;23372;52.050;4.810;2022-09-27T15:57:39;11.20;99.90
37528;DHT22;23372;52.050;4.810;2022-09-27T16:00:09;11.20;99.90
37528;DHT22;23372;52.050;4.810;2022-09-27T16:02:36;11.20;99.90
37528;DHT22;23372;52.050;4.810;2022-09-27T16:05:02;11.20;99.90
37528;DHT22;23372;52.050;4.810;2022-09-27T16:07:27;11.20;99.90
37528;DHT22;23372;52.050;4.810;2022-09-27T16:09:53;11.10;99.90
37528;DHT22;23372;52.050;4.810;2022-09-27T16:12:20;11.10;99.90
37528;DHT22;23372;52.050;4.810;2022-09-27T16:14:46;11.10;99.90
37528;DHT22;23372;52.050;4.810;2022-09-27T16:17:12;11.00;99.90
37528;DHT22;23372;52.050;4.810;2022-09-27T16:19:37;11.00;99.90
37528;DHT22;23372;52.050;4.810;2022-09-27T16:22:03;10.90;99.90
37528;DHT22;23372;52.050;4.810;2022-09-27T16:24:30;10.90;99.90
37528;DHT22;23372;52.050;4.810;2022-09-27T16:26:56;10.90;99.90
37528;DHT22;23372;52.050;4.810;2022-09-27T16:29:22;10.80;99.90
37528;DHT22;23372;52.050;4.810;2022-09-27T16:31:47;10.80;99.90
37528;DHT22;23372;52.050;4.810;2022-09-27T16:34:13;10.80;99.90
37528;DHT22;23372;52.050;4.810;2022-09-27T16:36:39;10.90;99.90
37528;DHT22;23372;52.050;4.810;2022-09-27T16:39:06;10.90;99.90
37528;DHT22;23372;52.050;4.810;2022-09-27T16:41:32;10.90;99.90
37528;DHT22;23372;52.050;4.810;2022-09-27T16:43:58;10.90;99.90
37528;DHT22;23372;52.050;4.810;2022-09-27T16:46:24;10.80;99.90
37528;DHT22;23372;52.050;4.810;2022-09-27T16:48:49;10.90;99.90
37528;DHT22;23372;52.050;4.810;2022-09-27T16:51:18;10.80;99.90
37528;DHT22;23372;52.050;4.810;2022-09-27T16:54:03;10.70;99.90
37528;DHT22;23372;52.050;4.810;2022-09-27T16:56:33;10.70;99.90
37528;DHT22;23372;52.050;4.810;2022-09-27T16:58:59;10.60;99.90
37528;DHT22;23372;52.050;4.810;2022-09-27T17:01:28;10.70;99.90
37528;DHT22;23372;52.050;4.810;2022-09-27T17:03:53;10.60;99.90
37528;DHT22;23372;52.050;4.810;2022-09-27T17:06:19;10.60;99.90
37528;DHT22;23372;52.050;4.810;2022-09-27T17:08:45;10.50;99.90
37528;DHT22;23372;52.050;4.810;2022-09-27T17:11:15;10.50;99.90
37528;DHT22;23372;52.050;4.810;2022-09-27T17:13:42;10.50;99.90
37528;DHT22;23372;52.050;4.810;2022-09-27T17:16:09;10.50;99.90
37528;DHT22;23372;52.050;4.810;2022-09-27T17:18:35;10.50;99.90
37528;DHT22;23372;52.050;4.810;2022-09-27T17:21:01;10.40;99.90
37528;DHT22;23372;52.050;4.810;2022-09-27T17:23:31;10.50;99.90
37528;DHT22;23372;52.050;4.810;2022-09-27T17:26:13;10.50;99.90
37528;DHT22;23372;52.050;4.810;2022-09-27T17:28:39;10.40;99.90
37528;DHT22;23372;52.050;4.810;2022-09-27T17:31:06;10.30;99.90
37528;DHT22;23372;52.050;4.810;2022-09-27T17:33:44;10.30;99.90
37528;DHT22;23372;52.050;4.810;2022-09-27T17:36:14;10.40;99.90
37528;DHT22;23372;52.050;4.810;2022-09-27T17:38:40;10.20;99.90
37528;DHT22;23372;52.050;4.810;2022-09-27T17:41:08;10.30;99.90
37528;DHT22;23372;52.050;4.810;2022-09-27T17:43:38;10.20;99.90
37528;DHT22;23372;52.050;4.810;2022-09-27T17:46:08;10.20;99.90
37528;DHT22;23372;52.050;4.810;2022-09-27T17:48:35;10.20;99.90
37528;DHT22;23372;52.050;4.810;2022-09-27T17:51:20;10.20;99.90
37528;DHT22;23372;52.050;4.810;2022-09-27T17:53:46;10.20;99.90
37528;DHT22;23372;52.050;4.810;2022-09-27T17:56:13;10.10;99.90
37528;DHT22;23372;52.050;4.810;2022-09-27T17:58:44;10.10;99.90
37528;DHT22;23372;52.050;4.810;2022-09-27T18:01:10;10.00;99.90
37528;DHT22;23372;52.050;4.810;2022-09-27T18:03:36;10.10;99.90
37528;DHT22;23372;52.050;4.810;2022-09-27T18:06:09;10.10;99.90
37528;DHT22;23372;52.050;4.810;2022-09-27T18:08:36;10.10;99.90
37528;DHT22;23372;52.050;4.810;2022-09-27T18:13:33;10.10;99.90
37528;DHT22;23372;52.050;4.810;2022-09-27T18:16:06;10.10;99.90
37528;DHT22;23372;52.050;4.810;2022-09-27T18:18:33;10.10;99.90
37528;DHT22;23372;52.050;4.810;2022-09-27T18:21:01;10.10;99.90
37528;DHT22;23372;52.050;4.810;2022-09-27T18:23:29;10.10;99.90
37528;DHT22;23372;52.050;4.810;2022-09-27T18:25:54;10.10;99.90